Time;durP1;ratioP1;P1;durP2;ratioP2;P2;SDS_P1;SDS_P2;PMS_P1;PMS_P2;Temp;Humidity;BMP_temperature;BMP_pressure;BME280_temperature;BME280_humidity;BME280_pressure;Samples;Min_cycle;Max_cycle;Signal;HPM_P1;HPM_P2
2023/06/09 00:00:18;;;;;;;4.40;2.40;;;;;;;;;;5115047;28;20413;-82
2023/06/09 00:02:44;;;;;;;5.73;2.70;;;;;;;;;;5114809;28;20484;-83
2023/06/09 00:05:11;;;;;;;8.40;3.03;;;;;;;;;;5096554;28;20414;-82
2023/06/09 00:07:37;;;;;;;3.97;2.60;;;;;;;;;;5114560;28;20437;-82
2023/06/09 00:10:06;;;;;;;3.00;2.53;;;;;;;;;;5114801;28;20407;-82
2023/06/09 00:12:32;;;;;;;3.30;1.83;;;;;;;;;;5115418;28;20549;-82
2023/06/09 00:14:58;;;;;;;6.97;3.47;;;;;;;;;;5115103;28;20464;-83
2023/06/09 00:17:25;;;;;;;5.70;3.30;;;;;;;;;;5115261;28;20466;-82
2023/06/09 00:20:01;;;;;;;4.53;2.77;;;;;;;;;;5115263;28;20414;-83
2023/06/09 00:22:27;;;;;;;4.10;2.17;;;;;;;;;;5114943;28;20506;-81
2023/06/09 00:24:53;;;;;;;5.27;2.30;;;;;;;;;;5115135;28;20916;-82
2023/06/09 00:27:19;;;;;;;8.10;3.00;;;;;;;;;;5115175;28;20411;-83
2023/06/09 00:29:45;;;;;;;4.93;2.37;;;;;;;;;;5114942;28;20901;-82
2023/06/09 00:32:14;;;;;;;4.40;3.07;;;;;;;;;;5115016;28;20444;-82
2023/06/09 00:34:40;;;;;;;6.43;2.80;;;;;;;;;;5114593;28;20176;-82
2023/06/09 00:37:06;;;;;;;5.43;2.87;;;;;;;;;;5114413;28;20563;-81
2023/06/09 00:39:32;;;;;;;5.57;3.03;;;;;;;;;;5114883;28;20421;-82
2023/06/09 00:41:58;;;;;;;8.00;3.50;;;;;;;;;;5096517;28;20427;-82
2023/06/09 00:44:24;;;;;;;6.27;2.07;;;;;;;;;;5114628;28;20537;-82
2023/06/09 00:46:50;;;;;;;6.40;2.30;;;;;;;;;;5114554;28;20412;-83
2023/06/09 00:49:16;;;;;;;3.87;2.53;;;;;;;;;;5114625;28;20176;-82
2023/06/09 00:51:42;;;;;;;5.00;2.07;;;;;;;;;;5114136;28;20192;-84
2023/06/09 00:54:08;;;;;;;4.93;2.73;;;;;;;;;;5114602;28;20415;-82
2023/06/09 00:56:35;;;;;;;5.40;2.30;;;;;;;;;;5096017;28;20456;-83
2023/06/09 00:59:01;;;;;;;4.73;2.50;;;;;;;;;;5114527;28;20182;-84
2023/06/09 01:01:32;;;;;;;4.33;2.23;;;;;;;;;;5114341;28;20411;-82
2023/06/09 01:03:59;;;;;;;5.63;2.17;;;;;;;;;;5114334;28;20771;-83
2023/06/09 01:06:38;;;;;;;4.10;2.23;;;;;;;;;;5113923;28;20410;-82
2023/06/09 01:09:18;;;;;;;4.97;3.17;;;;;;;;;;5114205;28;20601;-83
2023/06/09 01:11:49;;;;;;;6.93;2.77;;;;;;;;;;5114188;28;20914;-84
2023/06/09 01:14:41;;;;;;;4.03;2.30;;;;;;;;;;5113785;28;20992;-82
2023/06/09 01:17:13;;;;;;;5.70;2.33;;;;;;;;;;5111224;28;20910;-85
2023/06/09 01:19:44;;;;;;;4.47;2.63;;;;;;;;;;5095329;28;20439;-84
2023/06/09 01:22:20;;;;;;;4.73;2.73;;;;;;;;;;5095332;28;20431;-82
2023/06/09 01:25:05;;;;;;;4.40;2.57;;;;;;;;;;5114026;28;20408;-82
2023/06/09 01:27:33;;;;;;;7.57;4.10;;;;;;;;;;5113976;28;20420;-82
2023/06/09 01:29:59;;;;;;;5.60;2.70;;;;;;;;;;5113755;28;20418;-82
2023/06/09 01:32:26;;;;;;;6.10;3.13;;;;;;;;;;5113713;28;20497;-84
2023/06/09 01:34:55;;;;;;;5.30;2.87;;;;;;;;;;5113778;28;20414;-82
2023/06/09 01:37:21;;;;;;;6.23;3.07;;;;;;;;;;5113332;28;20464;-82
2023/06/09 01:39:47;;;;;;;6.50;3.27;;;;;;;;;;5113837;28;20412;-83
2023/06/09 01:42:12;;;;;;;5.03;3.17;;;;;;;;;;5113786;28;20497;-84
2023/06/09 01:44:41;;;;;;;5.20;2.63;;;;;;;;;;5113704;28;20442;-84
2023/06/09 01:47:07;;;;;;;6.40;2.93;;;;;;;;;;5113620;28;20173;-83
2023/06/09 01:49:38;;;;;;;6.70;3.40;;;;;;;;;;5113621;28;20409;-82
2023/06/09 01:52:07;;;;;;;5.40;2.53;;;;;;;;;;5113328;28;20406;-83
2023/06/09 01:54:40;;;;;;;6.50;3.30;;;;;;;;;;5113571;28;20454;-82
2023/06/09 01:57:10;;;;;;;5.60;2.17;;;;;;;;;;5095288;28;21024;-83
2023/06/09 01:59:38;;;;;;;4.43;2.70;;;;;;;;;;5113521;28;20405;-83
2023/06/09 02:02:05;;;;;;;5.23;2.80;;;;;;;;;;5113482;28;20417;-84
2023/06/09 02:04:32;;;;;;;3.37;2.67;;;;;;;;;;5113413;28;20410;-84
2023/06/09 02:06:58;;;;;;;5.70;2.87;;;;;;;;;;5112879;28;20418;-82
2023/06/09 02:09:25;;;;;;;6.40;4.00;;;;;;;;;;5113357;28;20455;-83
2023/06/09 02:11:54;;;;;;;4.20;3.07;;;;;;;;;;5095159;28;20682;-83
2023/06/09 02:14:20;;;;;;;9.83;3.63;;;;;;;;;;5113260;28;20445;-83
2023/06/09 02:16:47;;;;;;;4.20;2.70;;;;;;;;;;5094959;28;20573;-83
2023/06/09 02:19:13;;;;;;;4.40;3.30;;;;;;;;;;5095128;28;20510;-83
2023/06/09 02:21:39;;;;;;;7.20;3.60;;;;;;;;;;5112973;28;20462;-83
2023/06/09 02:24:08;;;;;;;5.20;2.87;;;;;;;;;;5113253;28;20413;-83
2023/06/09 02:26:34;;;;;;;5.00;3.00;;;;;;;;;;5113205;28;20409;-83
2023/06/09 02:29:06;;;;;;;6.30;3.53;;;;;;;;;;5094921;28;20413;-84
2023/06/09 02:31:32;;;;;;;4.00;3.03;;;;;;;;;;5114349;28;20417;-85
2023/06/09 02:33:58;;;;;;;4.00;2.57;;;;;;;;;;5117365;28;20440;-83
2023/06/09 02:36:24;;;;;;;5.23;3.20;;;;;;;;;;5116862;28;20950;-83
2023/06/09 02:38:50;;;;;;;3.50;2.00;;;;;;;;;;5117219;28;20397;-83
2023/06/09 02:41:16;;;;;;;5.00;2.80;;;;;;;;;;5117149;28;20196;-82
2023/06/09 02:43:42;;;;;;;5.30;2.83;;;;;;;;;;5117009;28;20397;-84
2023/06/09 02:46:09;;;;;;;8.20;3.67;;;;;;;;;;5117065;28;20414;-83
2023/06/09 02:48:35;;;;;;;4.87;3.63;;;;;;;;;;5117113;28;20178;-83
2023/06/09 02:51:12;;;;;;;6.23;2.40;;;;;;;;;;5116654;28;20775;-83
2023/06/09 02:53:38;;;;;;;7.93;3.27;;;;;;;;;;5117007;28;20491;-83
2023/06/09 02:56:07;;;;;;;5.50;2.60;;;;;;;;;;5116647;28;20598;-83
2023/06/09 02:58:33;;;;;;;4.93;2.17;;;;;;;;;;5098543;28;20429;-83
2023/06/09 03:01:01;;;;;;;4.60;2.57;;;;;;;;;;5116803;28;20958;-83
2023/06/09 03:03:28;;;;;;;6.37;3.67;;;;;;;;;;5116635;28;20416;-83
2023/06/09 03:05:55;;;;;;;5.13;3.00;;;;;;;;;;5116378;28;20405;-83
2023/06/09 03:08:21;;;;;;;9.23;2.40;;;;;;;;;;5116673;28;20459;-83
2023/06/09 03:10:53;;;;;;;8.10;3.00;;;;;;;;;;5116562;28;20418;-83
2023/06/09 03:13:19;;;;;;;4.60;2.90;;;;;;;;;;5116436;28;20460;-82
2023/06/09 03:15:45;;;;;;;4.93;2.97;;;;;;;;;;5097974;28;20454;-82
2023/06/09 03:18:13;;;;;;;8.70;3.20;;;;;;;;;;5097162;28;20421;-83
2023/06/09 03:20:39;;;;;;;10.50;4.20;;;;;;;;;;5116033;28;20467;-81
2023/06/09 03:23:06;;;;;;;4.63;2.70;;;;;;;;;;5116301;28;20550;-80
2023/06/09 03:25:33;;;;;;;5.80;2.90;;;;;;;;;;5116218;28;20416;-81
2023/06/09 03:27:59;;;;;;;6.47;3.27;;;;;;;;;;5097961;28;20517;-81
2023/06/09 03:30:25;;;;;;;8.10;4.10;;;;;;;;;;5097790;28;20453;-81
2023/06/09 03:32:51;;;;;;;4.70;3.20;;;;;;;;;;5116110;28;20289;-81
2023/06/09 03:35:17;;;;;;;7.90;2.90;;;;;;;;;;5115726;28;20408;-82
2023/06/09 03:37:43;;;;;;;9.43;2.77;;;;;;;;;;5116047;28;20482;-82
2023/06/09 03:40:10;;;;;;;6.10;3.03;;;;;;;;;;5116000;28;20458;-81
2023/06/09 03:42:36;;;;;;;5.80;3.13;;;;;;;;;;5115657;28;20556;-81
2023/06/09 03:45:02;;;;;;;4.90;3.03;;;;;;;;;;5115458;28;20444;-81
2023/06/09 03:47:28;;;;;;;5.10;2.87;;;;;;;;;;5115797;28;20275;-81
2023/06/09 03:49:54;;;;;;;6.30;3.80;;;;;;;;;;5097489;28;20458;-80
2023/06/09 03:52:21;;;;;;;5.50;3.20;;;;;;;;;;5115502;28;20478;-81
2023/06/09 03:54:47;;;;;;;6.70;4.13;;;;;;;;;;5115764;28;20410;-83
2023/06/09 03:57:16;;;;;;;6.87;3.13;;;;;;;;;;5115682;28;20501;-82
2023/06/09 03:59:42;;;;;;;5.03;3.07;;;;;;;;;;5115673;28;20925;-81
2023/06/09 04:02:08;;;;;;;5.47;2.67;;;;;;;;;;5115657;28;20531;-84
2023/06/09 04:04:34;;;;;;;3.93;2.70;;;;;;;;;;5115549;28;20173;-82
2023/06/09 04:07:00;;;;;;;7.87;2.73;;;;;;;;;;5115022;28;20168;-83
2023/06/09 04:09:27;;;;;;;6.10;3.67;;;;;;;;;;5115448;28;20405;-81
2023/06/09 04:11:53;;;;;;;8.60;3.57;;;;;;;;;;5097362;28;20922;-83
2023/06/09 04:14:19;;;;;;;4.97;2.80;;;;;;;;;;5115189;28;20464;-82
2023/06/09 04:16:45;;;;;;;4.70;3.50;;;;;;;;;;5115166;28;21219;-81
2023/06/09 04:19:11;;;;;;;4.13;2.67;;;;;;;;;;5115149;28;20488;-82
2023/06/09 04:21:38;;;;;;;5.73;4.10;;;;;;;;;;5114733;28;20414;-87
2023/06/09 04:24:05;;;;;;;8.83;4.17;;;;;;;;;;5114948;28;20766;-82
2023/06/09 04:26:32;;;;;;;6.13;3.43;;;;;;;;;;5115035;28;20425;-88
2023/06/09 04:28:59;;;;;;;8.07;3.77;;;;;;;;;;5115034;28;20789;-83
2023/06/09 04:31:33;;;;;;;7.60;3.90;;;;;;;;;;5114722;28;20829;-82
2023/06/09 04:34:05;;;;;;;9.93;3.27;;;;;;;;;;5115061;28;20403;-82
2023/06/09 04:36:32;;;;;;;9.10;4.13;;;;;;;;;;5114408;28;20549;-82
2023/06/09 04:38:59;;;;;;;4.97;3.60;;;;;;;;;;5114832;28;20450;-82
2023/06/09 04:41:26;;;;;;;7.20;4.30;;;;;;;;;;5114694;28;20407;-84
2023/06/09 04:43:53;;;;;;;8.83;3.57;;;;;;;;;;5114723;28;20522;-83
2023/06/09 04:46:24;;;;;;;6.60;3.27;;;;;;;;;;5114669;28;20406;-83
2023/06/09 04:48:51;;;;;;;5.53;3.27;;;;;;;;;;5114684;28;20407;-83
2023/06/09 04:51:17;;;;;;;7.83;3.80;;;;;;;;;;5114210;28;20406;-83
2023/06/09 04:53:45;;;;;;;7.27;4.13;;;;;;;;;;5114635;28;20915;-82
2023/06/09 04:56:15;;;;;;;6.43;3.63;;;;;;;;;;5113351;28;20473;-82
2023/06/09 04:58:42;;;;;;;4.80;2.53;;;;;;;;;;5114508;28;20411;-83
2023/06/09 05:01:07;;;;;;;6.40;3.47;;;;;;;;;;5114491;28;20395;-83
2023/06/09 05:03:34;;;;;;;4.53;2.43;;;;;;;;;;5114411;28;20739;-83
2023/06/09 05:05:59;;;;;;;9.57;3.33;;;;;;;;;;5113977;28;20226;-83
2023/06/09 05:08:25;;;;;;;8.93;3.77;;;;;;;;;;5114028;28;20411;-82
2023/06/09 05:10:52;;;;;;;4.77;2.63;;;;;;;;;;5113956;28;20755;-82
2023/06/09 05:13:18;;;;;;;6.07;2.30;;;;;;;;;;5113911;28;20553;-83
2023/06/09 05:15:45;;;;;;;5.00;2.13;;;;;;;;;;5113764;28;20414;-83
2023/06/09 05:18:11;;;;;;;6.00;2.37;;;;;;;;;;5096008;28;20444;-83
2023/06/09 05:20:36;;;;;;;4.93;3.13;;;;;;;;;;5113853;28;20423;-83
2023/06/09 05:23:02;;;;;;;5.33;2.70;;;;;;;;;;5114188;28;20427;-84
2023/06/09 05:25:28;;;;;;;6.10;2.60;;;;;;;;;;5113903;28;20412;-82
2023/06/09 05:27:54;;;;;;;5.53;2.73;;;;;;;;;;5095734;28;20418;-82
2023/06/09 05:30:20;;;;;;;10.60;2.63;;;;;;;;;;5095621;28;20424;-82
2023/06/09 05:32:46;;;;;;;6.03;2.37;;;;;;;;;;5095723;28;20430;-81
2023/06/09 05:35:12;;;;;;;4.30;2.10;;;;;;;;;;5095393;28;20190;-82
2023/06/09 05:37:51;;;;;;;8.57;3.73;;;;;;;;;;5113710;28;20208;-82
2023/06/09 05:40:17;;;;;;;5.67;2.67;;;;;;;;;;5095586;28;20184;-81
2023/06/09 05:42:49;;;;;;;5.40;2.30;;;;;;;;;;5095511;28;20422;-83
2023/06/09 05:45:15;;;;;;;3.90;2.57;;;;;;;;;;5113745;28;20408;-86
2023/06/09 05:47:42;;;;;;;4.20;1.83;;;;;;;;;;5113813;28;20856;-85
2023/06/09 05:50:08;;;;;;;5.63;2.50;;;;;;;;;;5113400;28;20412;-80
2023/06/09 05:52:33;;;;;;;5.93;2.77;;;;;;;;;;5113593;28;20404;-80
2023/06/09 05:55:00;;;;;;;10.30;2.53;;;;;;;;;;5113465;28;20419;-81
2023/06/09 05:57:29;;;;;;;4.60;2.30;;;;;;;;;;5113547;28;20675;-81
2023/06/09 05:59:56;;;;;;;3.60;2.40;;;;;;;;;;5113565;28;20401;-80
2023/06/09 06:02:23;;;;;;;3.10;1.83;;;;;;;;;;5095133;28;21000;-80
2023/06/09 06:04:49;;;;;;;5.13;2.10;;;;;;;;;;5094788;28;20509;-80
2023/06/09 06:07:16;;;;;;;5.30;2.30;;;;;;;;;;5113029;28;20417;-80
2023/06/09 06:09:42;;;;;;;4.73;2.47;;;;;;;;;;5113356;28;20763;-80
2023/06/09 06:12:08;;;;;;;6.63;3.10;;;;;;;;;;5113333;28;20414;-80
2023/06/09 06:14:34;;;;;;;4.00;2.27;;;;;;;;;;5113005;28;20223;-80
2023/06/09 06:17:00;;;;;;;3.93;1.97;;;;;;;;;;5113191;28;20570;-80
2023/06/09 06:19:26;;;;;;;6.70;3.50;;;;;;;;;;5113522;28;20642;-81
2023/06/09 06:21:52;;;;;;;5.00;2.83;;;;;;;;;;5113093;28;20174;-81
2023/06/09 06:24:18;;;;;;;4.47;3.07;;;;;;;;;;5113343;28;20406;-81
2023/06/09 06:26:44;;;;;;;4.80;2.37;;;;;;;;;;5113245;28;20644;-80
2023/06/09 06:29:13;;;;;;;3.83;2.60;;;;;;;;;;5113291;28;20165;-80
2023/06/09 06:31:39;;;;;;;4.10;2.40;;;;;;;;;;5094913;28;20834;-80
2023/06/09 06:34:05;;;;;;;4.93;2.50;;;;;;;;;;5113176;28;20445;-81
2023/06/09 06:36:34;;;;;;;4.83;2.27;;;;;;;;;;5112750;28;20911;-80
2023/06/09 06:39:00;;;;;;;4.53;2.80;;;;;;;;;;5113129;28;20209;-80
2023/06/09 06:41:26;;;;;;;3.90;2.03;;;;;;;;;;5113054;28;20825;-80
2023/06/09 06:43:52;;;;;;;7.90;3.23;;;;;;;;;;5112910;28;20173;-80
2023/06/09 06:46:21;;;;;;;4.37;2.90;;;;;;;;;;5112920;28;20416;-80
2023/06/09 06:48:50;;;;;;;6.30;2.50;;;;;;;;;;5113034;28;20412;-81
2023/06/09 06:51:16;;;;;;;5.20;2.73;;;;;;;;;;5094422;28;20770;-80
2023/06/09 06:53:48;;;;;;;5.40;2.43;;;;;;;;;;5112930;28;20405;-80
2023/06/09 06:56:14;;;;;;;3.10;2.13;;;;;;;;;;5112770;28;20466;-81
2023/06/09 06:58:40;;;;;;;5.37;2.83;;;;;;;;;;5113016;28;20431;-80
2023/06/09 07:01:06;;;;;;;6.03;2.93;;;;;;;;;;5113061;28;20412;-80
2023/06/09 07:03:33;;;;;;;4.63;3.00;;;;;;;;;;5113028;28;20458;-80
2023/06/09 07:06:01;;;;;;;4.33;2.63;;;;;;;;;;5112574;28;20406;-79
2023/06/09 07:08:27;;;;;;;4.63;3.03;;;;;;;;;;5094795;28;20425;-80
2023/06/09 07:10:53;;;;;;;4.73;2.97;;;;;;;;;;5112866;28;20432;-80
2023/06/09 07:13:19;;;;;;;4.93;2.53;;;;;;;;;;5112760;28;20217;-81
2023/06/09 07:15:45;;;;;;;3.40;2.40;;;;;;;;;;5112746;28;20196;-81
2023/06/09 07:18:11;;;;;;;6.27;3.40;;;;;;;;;;5095227;28;20906;-82
2023/06/09 07:20:37;;;;;;;3.97;2.73;;;;;;;;;;5116180;28;20170;-82
2023/06/09 07:23:03;;;;;;;4.87;2.97;;;;;;;;;;5116456;28;20767;-83
2023/06/09 07:25:28;;;;;;;4.10;2.80;;;;;;;;;;5116466;28;20405;-82
2023/06/09 07:27:54;;;;;;;4.50;3.20;;;;;;;;;;5116442;28;20176;-83
2023/06/09 07:30:21;;;;;;;2.93;2.60;;;;;;;;;;5116332;28;20168;-80
2023/06/09 07:32:47;;;;;;;4.63;2.97;;;;;;;;;;5116074;28;20568;-81
2023/06/09 07:35:13;;;;;;;4.57;2.50;;;;;;;;;;5097576;28;20409;-80
2023/06/09 07:37:45;;;;;;;4.47;3.00;;;;;;;;;;5116144;28;20584;-81
2023/06/09 07:40:11;;;;;;;3.23;2.60;;;;;;;;;;5116187;28;20969;-79
2023/06/09 07:42:37;;;;;;;5.90;2.83;;;;;;;;;;5116114;28;20415;-80
2023/06/09 07:45:03;;;;;;;4.83;3.23;;;;;;;;;;5116138;28;20397;-81
2023/06/09 07:47:29;;;;;;;5.63;3.53;;;;;;;;;;5116047;28;20168;-80
2023/06/09 07:49:55;;;;;;;4.13;2.97;;;;;;;;;;5115536;28;20465;-82
2023/06/09 07:52:21;;;;;;;5.77;2.63;;;;;;;;;;5115811;28;20527;-81
2023/06/09 07:54:47;;;;;;;4.33;2.83;;;;;;;;;;5115928;28;20163;-80
2023/06/09 07:57:13;;;;;;;4.07;3.03;;;;;;;;;;5097507;28;20556;-83
2023/06/09 07:59:40;;;;;;;4.00;2.83;;;;;;;;;;5097452;28;20235;-84
2023/06/09 08:02:06;;;;;;;4.43;2.93;;;;;;;;;;5115753;28;20412;-84
2023/06/09 08:04:32;;;;;;;4.20;3.00;;;;;;;;;;5096916;28;20409;-86
2023/06/09 08:06:59;;;;;;;3.90;2.73;;;;;;;;;;5115633;28;20164;-86
2023/06/09 08:09:25;;;;;;;4.73;2.70;;;;;;;;;;5115631;28;20910;-82
2023/06/09 08:11:51;;;;;;;4.00;3.17;;;;;;;;;;5115474;28;20414;-80
2023/06/09 08:14:17;;;;;;;5.57;3.33;;;;;;;;;;5115102;28;21025;-82
2023/06/09 08:16:43;;;;;;;3.47;3.10;;;;;;;;;;5115412;28;20286;-85
2023/06/09 08:19:09;;;;;;;5.73;3.70;;;;;;;;;;5115387;28;20832;-81
2023/06/09 08:21:42;;;;;;;5.27;3.63;;;;;;;;;;5115060;28;20402;-82
2023/06/09 08:24:08;;;;;;;3.90;2.70;;;;;;;;;;5096916;28;20421;-81
2023/06/09 08:26:34;;;;;;;3.00;2.73;;;;;;;;;;5115224;28;20418;-81
2023/06/09 08:29:02;;;;;;;3.63;2.53;;;;;;;;;;5108672;27;20463;-83
2023/06/09 08:31:28;;;;;;;3.80;3.47;;;;;;;;;;5113706;28;20406;-80
2023/06/09 08:33:55;;;;;;;3.37;2.70;;;;;;;;;;5114527;28;20416;-81
2023/06/09 08:36:21;;;;;;;3.73;3.10;;;;;;;;;;5114253;28;20667;-86
2023/06/09 08:38:47;;;;;;;4.00;3.30;;;;;;;;;;5113737;28;20417;-81
2023/06/09 08:41:15;;;;;;;3.93;3.20;;;;;;;;;;5113994;28;20397;-82
2023/06/09 08:43:44;;;;;;;2.90;2.60;;;;;;;;;;5114433;28;20433;-83
2023/06/09 08:46:11;;;;;;;3.23;2.40;;;;;;;;;;5097165;27;20566;-81
2023/06/09 08:48:39;;;;;;;5.03;3.10;;;;;;;;;;5136763;27;20420;-84
2023/06/09 08:51:05;;;;;;;3.40;3.10;;;;;;;;;;5133810;27;20515;-90
2023/06/09 08:53:31;;;;;;;4.10;3.20;;;;;;;;;;5134769;27;20397;-85
2023/06/09 08:55:58;;;;;;;3.93;3.27;;;;;;;;;;5134592;27;20997;-91
2023/06/09 08:58:25;;;;;;;3.17;2.73;;;;;;;;;;5135802;27;20400;-94
2023/06/09 09:00:52;;;;;;;6.20;3.03;;;;;;;;;;5141462;27;20411;-93
2023/06/09 09:03:18;;;;;;;4.13;2.53;;;;;;;;;;5139810;27;20401;-77
2023/06/09 09:05:44;;;;;;;3.90;2.63;;;;;;;;;;5123904;27;20952;-78
2023/06/09 09:08:11;;;;;;;4.33;3.20;;;;;;;;;;5095312;28;20929;-78
2023/06/09 09:10:38;;;;;;;3.53;3.23;;;;;;;;;;5113619;28;20425;-80
2023/06/09 09:13:07;;;;;;;2.50;2.03;;;;;;;;;;5113341;28;20886;-79
2023/06/09 09:15:33;;;;;;;4.47;2.90;;;;;;;;;;5113804;28;20474;-79
2023/06/09 09:18:02;;;;;;;3.80;3.10;;;;;;;;;;5113801;28;20409;-82
2023/06/09 09:20:32;;;;;;;2.33;2.13;;;;;;;;;;5113533;28;20223;-80
2023/06/09 09:22:58;;;;;;;2.67;2.17;;;;;;;;;;5091269;28;20465;-81
2023/06/09 09:25:28;;;;;;;2.40;2.20;;;;;;;;;;5092399;28;20415;-82
2023/06/09 09:28:01;;;;;;;3.00;2.40;;;;;;;;;;5093587;28;20250;-76
2023/06/09 09:30:42;;;;;;;3.20;2.17;;;;;;;;;;5093511;28;20406;-76
2023/06/09 09:33:11;;;;;;;2.93;2.00;;;;;;;;;;5093487;28;20536;-77
2023/06/09 09:35:38;;;;;;;2.67;2.47;;;;;;;;;;5093098;28;20402;-77
2023/06/09 09:38:04;;;;;;;2.27;2.07;;;;;;;;;;5093582;28;20410;-76
2023/06/09 09:40:30;;;;;;;3.20;2.83;;;;;;;;;;5093233;28;20539;-84
2023/06/09 09:43:01;;;;;;;3.57;2.87;;;;;;;;;;5093205;28;20269;-81
2023/06/09 09:45:29;;;;;;;3.87;2.50;;;;;;;;;;5093501;28;20886;-84
2023/06/09 09:48:08;;;;;;;2.70;2.40;;;;;;;;;;5093241;28;20470;-84
2023/06/09 09:50:36;;;;;;;5.10;2.77;;;;;;;;;;5093164;28;20809;-80
2023/06/09 09:53:03;;;;;;;1.80;1.50;;;;;;;;;;5093261;28;20413;-74
2023/06/09 09:55:29;;;;;;;2.63;2.23;;;;;;;;;;5093190;28;20509;-85
2023/06/09 09:57:56;;;;;;;2.50;2.30;;;;;;;;;;5093306;28;20891;-76
2023/06/09 10:00:22;;;;;;;3.27;2.87;;;;;;;;;;5093279;28;20501;-77
2023/06/09 10:02:51;;;;;;;4.60;3.13;;;;;;;;;;5091929;28;20497;-75
2023/06/09 10:05:17;;;;;;;3.47;2.40;;;;;;;;;;5092704;28;20411;-78
2023/06/09 10:07:45;;;;;;;2.90;2.60;;;;;;;;;;5091733;28;20896;-79
2023/06/09 10:10:12;;;;;;;4.90;2.53;;;;;;;;;;5093078;28;20421;-76
2023/06/09 10:12:38;;;;;;;3.77;2.33;;;;;;;;;;5093174;28;20417;-75
2023/06/09 10:15:08;;;;;;;3.23;2.13;;;;;;;;;;5092949;28;20458;-76
2023/06/09 10:17:36;;;;;;;4.50;2.10;;;;;;;;;;5093039;28;20410;-80
2023/06/09 10:20:04;;;;;;;3.07;2.20;;;;;;;;;;5092634;28;20874;-75
2023/06/09 10:22:30;;;;;;;2.20;2.00;;;;;;;;;;5093019;28;20979;-76
2023/06/09 10:24:56;;;;;;;2.80;2.30;;;;;;;;;;5093033;28;20413;-78
2023/06/09 10:27:23;;;;;;;3.13;2.20;;;;;;;;;;5092926;28;20509;-77
2023/06/09 10:29:50;;;;;;;3.90;1.83;;;;;;;;;;5092918;28;20406;-78
2023/06/09 10:32:21;;;;;;;3.00;2.70;;;;;;;;;;5092866;28;20437;-77
2023/06/09 10:34:48;;;;;;;4.53;2.10;;;;;;;;;;5092581;28;20403;-78
2023/06/09 10:37:26;;;;;;;4.27;2.90;;;;;;;;;;5092834;28;20551;-76
2023/06/09 10:39:56;;;;;;;5.37;2.73;;;;;;;;;;5092939;28;20850;-77
2023/06/09 10:42:31;;;;;;;3.13;2.83;;;;;;;;;;5092819;28;20406;-78
2023/06/09 10:45:00;;;;;;;8.30;3.20;;;;;;;;;;5092817;28;20429;-78
2023/06/09 10:47:46;;;;;;;4.20;2.90;;;;;;;;;;5092611;28;20462;-78
2023/06/09 10:50:26;;;;;;;3.03;2.13;;;;;;;;;;5092313;28;20406;-77
2023/06/09 10:52:53;;;;;;;3.70;2.40;;;;;;;;;;5094458;28;20414;-77
2023/06/09 10:55:21;;;;;;;4.10;2.30;;;;;;;;;;5096617;28;20438;-78
2023/06/09 10:57:47;;;;;;;4.90;2.17;;;;;;;;;;5096530;28;20422;-78
2023/06/09 11:00:16;;;;;;;2.83;2.10;;;;;;;;;;5096541;28;20906;-79
2023/06/09 11:02:46;;;;;;;5.30;2.43;;;;;;;;;;5096206;28;20414;-78
2023/06/09 11:05:12;;;;;;;5.47;2.70;;;;;;;;;;5095968;28;20412;-74
2023/06/09 11:07:51;;;;;;;2.80;1.63;;;;;;;;;;5096318;28;20465;-75
2023/06/09 11:10:19;;;;;;;4.00;2.00;;;;;;;;;;5096292;28;20410;-78
2023/06/09 11:12:46;;;;;;;4.50;2.37;;;;;;;;;;5094846;28;21293;-81
2023/06/09 11:15:15;;;;;;;4.97;2.43;;;;;;;;;;5096260;28;20516;-81
2023/06/09 11:17:42;;;;;;;4.80;3.03;;;;;;;;;;5096210;28;20500;-83
2023/06/09 11:20:11;;;;;;;2.90;2.60;;;;;;;;;;5094581;28;20430;-77
2023/06/09 11:22:53;;;;;;;2.90;2.00;;;;;;;;;;5096160;28;20410;-78
2023/06/09 11:25:19;;;;;;;3.37;2.70;;;;;;;;;;5096070;28;20438;-77
2023/06/09 11:27:49;;;;;;;4.27;2.70;;;;;;;;;;5096063;28;20505;-76
2023/06/09 11:30:18;;;;;;;3.13;2.57;;;;;;;;;;5094662;28;20641;-77
2023/06/09 11:32:54;;;;;;;2.80;2.00;;;;;;;;;;5096080;28;20410;-78
2023/06/09 11:35:23;;;;;;;3.70;2.30;;;;;;;;;;5095640;28;20507;-77
2023/06/09 11:37:58;;;;;;;2.33;1.90;;;;;;;;;;5095784;28;20465;-77
2023/06/09 11:40:25;;;;;;;2.90;2.37;;;;;;;;;;5095879;28;20445;-84
2023/06/09 11:42:52;;;;;;;2.50;1.90;;;;;;;;;;5095787;28;20414;-78
2023/06/09 11:45:18;;;;;;;3.00;1.83;;;;;;;;;;5095813;28;20559;-80
2023/06/09 11:47:45;;;;;;;1.90;1.70;;;;;;;;;;5095524;28;20556;-78
2023/06/09 11:50:20;;;;;;;5.20;2.07;;;;;;;;;;5093971;28;20422;-78
2023/06/09 11:52:47;;;;;;;3.87;2.27;;;;;;;;;;5095520;28;20512;-77
2023/06/09 11:55:15;;;;;;;3.00;2.43;;;;;;;;;;5095530;28;20811;-78
2023/06/09 11:57:41;;;;;;;3.60;1.93;;;;;;;;;;5094223;28;20463;-78
2023/06/09 12:00:14;;;;;;;2.40;1.60;;;;;;;;;;5095490;28;20489;-78
2023/06/09 12:02:44;;;;;;;3.87;2.20;;;;;;;;;;5095496;28;20403;-77
2023/06/09 12:05:11;;;;;;;2.80;2.20;;;;;;;;;;5094355;28;20410;-78
2023/06/09 12:07:37;;;;;;;3.30;1.83;;;;;;;;;;5095262;28;20469;-83
2023/06/09 12:10:04;;;;;;;4.67;2.17;;;;;;;;;;5095376;28;20411;-79
2023/06/09 12:12:30;;;;;;;2.10;1.90;;;;;;;;;;5095171;28;20190;-77
2023/06/09 12:14:56;;;;;;;3.33;1.97;;;;;;;;;;5094874;28;20458;-77
2023/06/09 12:17:22;;;;;;;2.23;1.67;;;;;;;;;;5093798;28;20419;-79
2023/06/09 12:19:54;;;;;;;3.90;1.63;;;;;;;;;;5094501;28;20402;-86
2023/06/09 12:22:20;;;;;;;2.60;2.27;;;;;;;;;;5095003;28;20437;-80
2023/06/09 12:24:46;;;;;;;2.67;1.87;;;;;;;;;;5094842;28;20444;-78
2023/06/09 12:27:13;;;;;;;2.80;2.10;;;;;;;;;;5104807;28;20230;-78
2023/06/09 12:29:39;;;;;;;2.00;1.03;;;;;;;;;;5114598;28;20410;-76
2023/06/09 12:32:05;;;;;;;2.40;1.57;;;;;;;;;;5114345;28;20802;-76
2023/06/09 12:34:32;;;;;;;1.50;1.27;;;;;;;;;;5101877;28;20600;-81
2023/06/09 12:36:58;;;;;;;3.40;2.03;;;;;;;;;;5098682;28;20441;-75
2023/06/09 12:39:32;;;;;;;2.93;2.00;;;;;;;;;;5115019;28;20985;-76
2023/06/09 12:41:58;;;;;;;2.90;1.67;;;;;;;;;;5114895;28;20454;-76
2023/06/09 12:44:25;;;;;;;2.50;1.63;;;;;;;;;;5114660;28;20407;-84
2023/06/09 12:46:57;;;;;;;2.73;1.53;;;;;;;;;;5114756;28;21015;-81
2023/06/09 12:49:33;;;;;;;2.50;1.63;;;;;;;;;;5114031;28;20401;-75
2023/06/09 12:51:59;;;;;;;2.20;1.80;;;;;;;;;;5093725;27;20766;-75
2023/06/09 12:54:29;;;;;;;4.27;2.33;;;;;;;;;;5104558;28;20418;-77
2023/06/09 12:56:55;;;;;;;2.73;2.10;;;;;;;;;;5114273;28;20901;-74
2023/06/09 12:59:21;;;;;;;2.90;1.70;;;;;;;;;;5114142;28;20488;-75
2023/06/09 13:01:47;;;;;;;3.53;2.13;;;;;;;;;;5114026;28;20417;-75
2023/06/09 13:04:15;;;;;;;5.83;2.40;;;;;;;;;;5113709;28;20428;-81
2023/06/09 13:06:41;;;;;;;2.13;1.93;;;;;;;;;;5113538;28;20586;-75
2023/06/09 13:09:07;;;;;;;2.30;2.10;;;;;;;;;;5113718;28;20880;-81
2023/06/09 13:11:33;;;;;;;2.30;1.77;;;;;;;;;;5113999;28;20447;-75
2023/06/09 13:13:59;;;;;;;4.17;1.87;;;;;;;;;;5113147;28;20306;-76
2023/06/09 13:16:25;;;;;;;2.80;2.13;;;;;;;;;;5111807;28;20171;-75
2023/06/09 13:18:51;;;;;;;2.70;1.90;;;;;;;;;;5112477;28;20409;-74
2023/06/09 13:21:17;;;;;;;2.60;2.00;;;;;;;;;;5113877;28;20225;-76
2023/06/09 13:23:43;;;;;;;3.80;2.00;;;;;;;;;;5120914;27;20433;-75
2023/06/09 13:26:10;;;;;;;3.30;1.87;;;;;;;;;;5133534;27;20166;-74
2023/06/09 13:28:36;;;;;;;2.83;1.90;;;;;;;;;;5115792;27;20420;-76
2023/06/09 13:31:02;;;;;;;3.60;1.90;;;;;;;;;;5133953;27;20427;-74
2023/06/09 13:33:28;;;;;;;2.00;1.80;;;;;;;;;;5133806;27;20919;-77
2023/06/09 13:35:54;;;;;;;2.13;1.70;;;;;;;;;;5133754;27;20182;-74
2023/06/09 13:38:20;;;;;;;5.50;2.60;;;;;;;;;;5134008;27;20253;-74
2023/06/09 13:40:48;;;;;;;2.80;1.97;;;;;;;;;;5134050;27;20396;-75
2023/06/09 13:43:17;;;;;;;2.53;2.00;;;;;;;;;;5133853;27;20420;-76
2023/06/09 13:45:43;;;;;;;2.67;2.40;;;;;;;;;;5133974;27;20784;-74
2023/06/09 13:48:09;;;;;;;5.23;2.27;;;;;;;;;;5133782;27;20472;-74
2023/06/09 13:50:36;;;;;;;3.00;2.50;;;;;;;;;;5133340;27;20167;-74
2023/06/09 13:53:02;;;;;;;2.83;2.13;;;;;;;;;;5133844;27;20834;-77
2023/06/09 13:55:28;;;;;;;3.00;2.20;;;;;;;;;;5133697;27;20407;-75
2023/06/09 13:57:54;;;;;;;2.33;1.90;;;;;;;;;;5133727;27;20408;-75
2023/06/09 14:00:20;;;;;;;12.73;3.73;;;;;;;;;;5133653;27;20626;-75
2023/06/09 14:02:46;;;;;;;2.80;2.37;;;;;;;;;;5133834;27;20396;-76
2023/06/09 14:05:15;;;;;;;5.30;3.13;;;;;;;;;;5133213;27;20809;-76
2023/06/09 14:07:42;;;;;;;2.80;2.33;;;;;;;;;;5133606;27;20289;-76
2023/06/09 14:10:08;;;;;;;4.83;2.50;;;;;;;;;;5131064;27;20897;-75
2023/06/09 14:12:37;;;;;;;4.77;2.30;;;;;;;;;;5133606;27;20416;-75
2023/06/09 14:15:12;;;;;;;4.77;2.80;;;;;;;;;;5133486;28;20464;-75
2023/06/09 14:17:38;;;;;;;4.37;2.00;;;;;;;;;;5133460;28;20408;-76
2023/06/09 14:20:04;;;;;;;3.70;2.60;;;;;;;;;;5133290;28;20412;-74
2023/06/09 14:22:30;;;;;;;4.30;3.20;;;;;;;;;;5133541;28;20495;-74
2023/06/09 14:24:56;;;;;;;5.53;3.20;;;;;;;;;;5133353;28;20435;-74
2023/06/09 14:27:22;;;;;;;7.33;3.07;;;;;;;;;;5134615;27;20207;-75
2023/06/09 14:29:48;;;;;;;5.13;2.90;;;;;;;;;;5137720;27;20408;-74
2023/06/09 14:32:14;;;;;;;3.53;3.20;;;;;;;;;;5127331;27;20175;-75
2023/06/09 14:34:40;;;;;;;3.20;2.23;;;;;;;;;;5118656;27;20178;-74
2023/06/09 14:37:06;;;;;;;3.40;2.63;;;;;;;;;;5123263;27;20175;-74
2023/06/09 14:39:32;;;;;;;2.83;2.40;;;;;;;;;;5137447;27;20183;-75
2023/06/09 14:41:58;;;;;;;3.60;2.87;;;;;;;;;;5137561;27;20587;-75
2023/06/09 14:44:24;;;;;;;2.40;2.20;;;;;;;;;;5137531;27;20453;-75